Time;durP1;ratioP1;P1;durP2;ratioP2;P2;SDS_P1;SDS_P2;PMS_P1;PMS_P2;Temp;Humidity;BMP_temperature;BMP_pressure;BME280_temperature;BME280_humidity;BME280_pressure;Samples;Min_cycle;Max_cycle;Signal;HPM_P1;HPM_P2
2021/03/21 00:02:06;;;;;;;2.80;2.20;;;4.00;28.80;;;;;;4935892;29;20219;-79
2021/03/21 00:04:32;;;;;;;3.25;2.35;;;4.00;29.00;;;;;;4940320;29;20199;-79
2021/03/21 00:06:58;;;;;;;4.10;2.40;;;4.00;29.00;;;;;;4935207;29;20211;-80
2021/03/21 00:09:25;;;;;;;2.63;2.17;;;4.00;28.70;;;;;;4942174;29;20224;-79
2021/03/21 00:11:52;;;;;;;3.40;2.72;;;4.10;29.10;;;;;;4928150;29;20231;-78
2021/03/21 00:14:19;;;;;;;3.92;3.25;;;4.00;29.00;;;;;;4924090;29;20203;-75
2021/03/21 00:16:45;;;;;;;7.47;2.70;;;4.00;29.70;;;;;;4926625;29;20531;-77
2021/03/21 00:19:12;;;;;;;3.35;2.40;;;4.00;29.90;;;;;;4926834;29;20243;-77
2021/03/21 00:21:38;;;;;;;2.40;2.20;;;4.00;29.70;;;;;;4927779;29;20258;-79
2021/03/21 00:24:06;;;;;;;2.88;2.67;;;4.00;29.50;;;;;;4923537;29;20250;-76
2021/03/21 00:26:33;;;;;;;5.72;3.15;;;4.00;29.80;;;;;;4925647;29;20231;-78
2021/03/21 00:29:01;;;;;;;2.88;2.55;;;4.00;30.00;;;;;;4931145;29;20234;-77
2021/03/21 00:31:27;;;;;;;3.70;2.88;;;4.00;29.60;;;;;;4924269;29;20231;-76
2021/03/21 00:33:53;;;;;;;5.18;3.28;;;4.10;29.70;;;;;;4921494;29;20235;-77
2021/03/21 00:36:20;;;;;;;5.55;3.55;;;4.10;30.00;;;;;;4921683;29;20629;-76
2021/03/21 00:38:48;;;;;;;4.70;2.90;;;4.00;30.00;;;;;;4925064;29;20259;-78
2021/03/21 00:41:17;;;;;;;4.38;2.58;;;4.00;30.00;;;;;;4928670;29;20258;-77
2021/03/21 00:43:44;;;;;;;3.88;2.70;;;4.00;29.80;;;;;;4928871;29;20250;-77
2021/03/21 00:46:12;;;;;;;5.40;3.10;;;3.90;29.80;;;;;;4931459;29;20219;-77
2021/03/21 00:48:41;;;;;;;8.13;2.80;;;3.90;29.70;;;;;;4935868;29;20687;-75
2021/03/21 00:51:09;;;;;;;4.57;2.42;;;3.90;29.50;;;;;;4931782;29;20238;-76
2021/03/21 00:53:36;;;;;;;2.60;2.40;;;3.90;29.50;;;;;;4937627;29;20233;-76
2021/03/21 00:56:03;;;;;;;3.70;3.20;;;3.90;29.60;;;;;;4930597;29;20313;-79
2021/03/21 00:58:29;;;;;;;3.95;3.00;;;3.90;29.40;;;;;;4929158;29;20294;-77
2021/03/21 01:00:57;;;;;;;5.10;2.67;;;3.90;29.60;;;;;;4926429;29;20242;-77
2021/03/21 01:03:25;;;;;;;3.25;2.58;;;4.00;29.60;;;;;;4925229;29;20690;-78
2021/03/21 01:05:56;;;;;;;4.80;3.45;;;4.00;30.30;;;;;;4933224;29;20203;-79
2021/03/21 01:08:25;;;;;;;3.30;2.33;;;4.00;29.80;;;;;;4934274;29;20215;-80
2021/03/21 01:10:55;;;;;;;3.50;2.45;;;4.00;30.00;;;;;;4929236;29;20278;-76
2021/03/21 01:13:21;;;;;;;3.58;2.45;;;4.00;29.80;;;;;;4922753;29;20247;-78
2021/03/21 01:15:48;;;;;;;4.35;2.92;;;3.90;29.70;;;;;;4921771;29;20283;-76
2021/03/21 01:18:16;;;;;;;3.25;2.85;;;3.90;29.50;;;;;;4921910;29;20250;-77
2021/03/21 01:20:44;;;;;;;3.67;2.90;;;3.90;29.70;;;;;;4925537;29;20708;-78
2021/03/21 01:23:10;;;;;;;4.20;3.05;;;3.90;30.20;;;;;;4920393;29;20243;-77
2021/03/21 01:25:37;;;;;;;3.75;3.00;;;3.80;30.10;;;;;;4919001;29;20211;-78
2021/03/21 01:28:17;;;;;;;4.88;3.42;;;3.90;30.20;;;;;;4917263;29;20214;-77
2021/03/21 01:30:44;;;;;;;9.63;4.18;;;3.80;30.30;;;;;;4917192;29;20391;-77
2021/03/21 01:33:10;;;;;;;4.50;3.47;;;3.80;30.60;;;;;;4917297;29;20241;-78
2021/03/21 01:35:36;;;;;;;8.20;3.60;;;3.90;30.70;;;;;;4917334;29;20302;-79
2021/03/21 01:38:04;;;;;;;4.32;3.60;;;3.90;31.10;;;;;;4917881;29;20278;-78
2021/03/21 01:40:31;;;;;;;5.75;3.70;;;3.80;31.20;;;;;;4916983;29;20231;-78
2021/03/21 01:42:57;;;;;;;4.25;3.30;;;3.80;31.00;;;;;;4917368;29;20242;-77
2021/03/21 01:45:36;;;;;;;4.72;3.50;;;3.80;31.20;;;;;;4917110;29;20354;-78
2021/03/21 01:48:06;;;;;;;4.25;3.60;;;3.80;30.90;;;;;;4917929;29;20183;-78
2021/03/21 01:50:46;;;;;;;6.80;3.70;;;3.80;31.00;;;;;;4917193;29;20270;-76
2021/03/21 01:53:14;;;;;;;4.82;3.50;;;3.80;31.40;;;;;;4917822;29;20302;-77
2021/03/21 01:55:41;;;;;;;6.82;3.42;;;3.90;30.90;;;;;;4918132;29;20572;-78
2021/03/21 01:58:07;;;;;;;4.68;3.40;;;3.80;30.50;;;;;;4918707;29;20211;-78
2021/03/21 02:00:38;;;;;;;5.53;3.30;;;3.80;30.10;;;;;;4918414;29;20214;-78
2021/03/21 02:03:06;;;;;;;5.82;3.65;;;3.70;30.70;;;;;;4918199;29;20207;-78
2021/03/21 02:05:33;;;;;;;4.25;3.55;;;3.70;30.10;;;;;;4918672;29;20207;-79
2021/03/21 02:08:22;;;;;;;3.97;3.55;;;3.70;30.00;;;;;;4920810;29;20210;-78
2021/03/21 02:10:58;;;;;;;6.07;2.97;;;3.70;29.70;;;;;;4927552;29;20275;-79
2021/03/21 02:13:28;;;;;;;5.95;3.53;;;3.70;29.60;;;;;;4937246;29;20199;-78
2021/03/21 02:16:02;;;;;;;4.68;3.15;;;3.70;29.40;;;;;;4937880;29;20200;-79
2021/03/21 02:18:34;;;;;;;11.50;3.20;;;3.70;29.90;;;;;;4922315;29;20195;-78
2021/03/21 02:21:16;;;;;;;5.45;3.70;;;3.70;29.30;;;;;;4920139;29;20234;-77
2021/03/21 02:23:59;;;;;;;4.53;3.22;;;3.70;29.60;;;;;;4924731;29;20287;-77
2021/03/21 02:26:45;;;;;;;3.60;2.90;;;3.70;29.90;;;;;;4926228;29;20235;-77
2021/03/21 02:29:28;;;;;;;3.88;3.08;;;3.70;29.30;;;;;;4928315;29;20255;-78
2021/03/21 02:31:58;;;;;;;4.68;3.40;;;3.70;29.00;;;;;;4936505;29;20729;-78
2021/03/21 02:34:31;;;;;;;3.85;2.90;;;3.70;29.10;;;;;;4919984;29;20211;-76
2021/03/21 02:37:07;;;;;;;7.07;3.40;;;3.80;29.10;;;;;;4916836;29;20234;-78
2021/03/21 02:39:40;;;;;;;3.10;2.80;;;3.70;29.20;;;;;;4916149;29;20227;-78
2021/03/21 02:42:13;;;;;;;4.28;3.20;;;3.80;29.10;;;;;;4916560;29;20269;-78
2021/03/21 02:44:46;;;;;;;4.80;3.40;;;3.80;28.80;;;;;;4920332;29;20266;-76
2021/03/21 02:47:18;;;;;;;5.80;3.58;;;3.80;28.60;;;;;;4923547;29;20298;-77
2021/03/21 02:49:47;;;;;;;4.03;3.15;;;3.70;28.70;;;;;;4917988;29;20243;-79
2021/03/21 02:52:19;;;;;;;4.45;3.13;;;3.70;28.80;;;;;;4916920;29;20530;-78
2021/03/21 02:54:50;;;;;;;3.28;2.78;;;3.80;28.60;;;;;;4917459;29;20249;-78
2021/03/21 02:57:25;;;;;;;4.13;2.80;;;3.80;28.50;;;;;;4916588;29;20204;-79
2021/03/21 02:59:55;;;;;;;5.22;3.40;;;3.80;28.80;;;;;;4916950;29;20747;-78
2021/03/21 03:02:25;;;;;;;3.35;2.78;;;3.80;28.60;;;;;;4919447;29;20227;-78
2021/03/21 03:04:55;;;;;;;2.80;2.38;;;3.80;28.40;;;;;;4921269;29;20235;-78
2021/03/21 03:07:29;;;;;;;2.90;2.70;;;3.80;28.80;;;;;;4917589;29;20870;-78
2021/03/21 03:10:01;;;;;;;3.80;2.58;;;3.80;28.70;;;;;;4918182;29;20321;-77
2021/03/21 03:12:33;;;;;;;3.15;2.50;;;3.80;28.90;;;;;;4921494;29;20254;-78
2021/03/21 03:15:03;;;;;;;3.30;2.72;;;3.80;28.90;;;;;;4917748;29;20270;-78
2021/03/21 03:17:38;;;;;;;4.80;3.05;;;3.80;28.80;;;;;;4916663;29;20625;-77
2021/03/21 03:20:13;;;;;;;3.10;2.78;;;3.80;28.80;;;;;;4916294;29;20206;-77
2021/03/21 03:22:49;;;;;;;6.20;3.20;;;3.70;29.20;;;;;;4916407;29;20317;-77
2021/03/21 03:25:24;;;;;;;3.17;2.88;;;3.70;29.10;;;;;;4916135;29;20640;-78
2021/03/21 03:28:09;;;;;;;7.00;3.50;;;3.70;29.40;;;;;;4917288;29;20199;-77
2021/03/21 03:30:39;;;;;;;3.60;2.80;;;3.70;30.10;;;;;;4917181;29;20784;-78
2021/03/21 03:33:07;;;;;;;5.45;2.85;;;3.70;29.50;;;;;;4917592;29;20207;-78
2021/03/21 03:35:34;;;;;;;3.92;3.03;;;3.70;29.70;;;;;;4917529;29;20218;-78
2021/03/21 03:38:01;;;;;;;3.50;3.20;;;3.70;29.60;;;;;;4919416;29;20203;-77
2021/03/21 03:40:28;;;;;;;3.63;2.78;;;3.70;29.60;;;;;;4919610;29;20250;-77
2021/03/21 03:43:06;;;;;;;3.78;3.47;;;3.70;29.70;;;;;;4920046;29;20251;-78
2021/03/21 03:45:41;;;;;;;3.03;2.72;;;3.80;30.10;;;;;;4920570;29;20223;-78
2021/03/21 03:48:19;;;;;;;5.72;3.70;;;3.70;29.60;;;;;;4924718;29;20214;-78
2021/03/21 03:50:54;;;;;;;6.10;3.35;;;3.70;29.70;;;;;;4922269;29;20270;-78
2021/03/21 03:53:36;;;;;;;3.65;3.30;;;3.80;29.80;;;;;;4940376;29;20209;-78
2021/03/21 03:56:09;;;;;;;3.50;3.00;;;3.80;29.90;;;;;;4943116;29;20191;-79
2021/03/21 03:58:48;;;;;;;3.90;2.90;;;3.80;29.90;;;;;;4943306;29;20191;-78
2021/03/21 04:01:21;;;;;;;4.60;3.15;;;3.80;30.00;;;;;;4943642;29;20238;-78
2021/03/21 04:03:56;;;;;;;4.20;2.95;;;3.80;29.60;;;;;;4942885;29;20180;-77
2021/03/21 04:06:34;;;;;;;4.00;2.90;;;3.80;29.70;;;;;;4973172;23;20231;-77
2021/03/21 04:09:08;;;;;;;4.03;2.80;;;3.80;29.90;;;;;;4906649;29;20465;-78
2021/03/21 04:11:38;;;;;;;5.03;3.28;;;3.80;30.00;;;;;;4902231;29;20234;-78
2021/03/21 04:14:11;;;;;;;3.38;2.40;;;3.80;30.00;;;;;;4900091;29;20563;-77
2021/03/21 04:16:45;;;;;;;4.10;2.50;;;3.90;29.70;;;;;;4898769;29;20282;-78
2021/03/21 04:19:14;;;;;;;2.33;2.13;;;3.80;29.80;;;;;;4898114;29;20242;-78
2021/03/21 04:21:47;;;;;;;3.30;2.28;;;3.70;29.80;;;;;;4898350;29;20212;-79
2021/03/21 04:24:20;;;;;;;2.17;1.98;;;3.70;29.90;;;;;;4897410;29;20251;-79
2021/03/21 04:26:53;;;;;;;3.72;2.20;;;3.70;30.10;;;;;;4904102;29;20267;-78
2021/03/21 04:29:24;;;;;;;3.13;2.03;;;3.80;30.10;;;;;;4904478;29;20247;-78
2021/03/21 04:31:56;;;;;;;3.53;2.30;;;3.80;30.10;;;;;;4903061;29;20604;-78
2021/03/21 04:34:25;;;;;;;3.67;2.60;;;3.80;30.40;;;;;;4898936;29;20235;-78
2021/03/21 04:36:55;;;;;;;2.95;2.65;;;3.80;30.10;;;;;;4900504;29;20390;-78
2021/03/21 04:39:25;;;;;;;2.45;2.25;;;3.80;30.20;;;;;;4899163;29;20646;-79
2021/03/21 04:41:59;;;;;;;2.50;1.80;;;3.80;30.00;;;;;;4898049;29;20692;-79
2021/03/21 04:44:30;;;;;;;2.35;2.15;;;3.70;30.00;;;;;;4899407;29;20311;-78
2021/03/21 04:47:05;;;;;;;6.00;2.20;;;3.70;30.50;;;;;;4898065;29;20319;-78
2021/03/21 04:49:31;;;;;;;2.70;2.22;;;3.70;30.70;;;;;;4898348;29;20250;-78
2021/03/21 04:52:07;;;;;;;2.72;2.05;;;3.70;30.90;;;;;;4897778;29;20240;-79
2021/03/21 04:54:39;;;;;;;3.25;2.60;;;3.70;30.00;;;;;;4898054;29;20242;-79
2021/03/21 04:57:23;;;;;;;2.85;2.40;;;3.70;30.40;;;;;;4898996;29;20203;-78
2021/03/21 04:59:51;;;;;;;3.25;2.60;;;3.70;30.50;;;;;;4897938;29;20292;-78
2021/03/21 05:02:22;;;;;;;2.88;2.67;;;3.70;30.60;;;;;;4897406;29;20248;-78
2021/03/21 05:04:53;;;;;;;5.07;2.92;;;3.70;30.30;;;;;;4897569;29;20231;-78
2021/03/21 05:07:32;;;;;;;2.78;2.58;;;3.70;30.40;;;;;;4901044;29;20223;-78
2021/03/21 05:10:04;;;;;;;2.78;2.22;;;3.70;30.60;;;;;;4898175;29;20302;-79
2021/03/21 05:12:37;;;;;;;3.28;2.40;;;3.70;30.20;;;;;;4897902;29;20310;-79
2021/03/21 05:15:12;;;;;;;4.93;2.40;;;3.70;30.10;;;;;;4898375;29;20267;-79
2021/03/21 05:17:50;;;;;;;3.17;2.30;;;3.70;30.40;;;;;;4899274;29;20207;-78
2021/03/21 05:20:23;;;;;;;3.28;2.70;;;3.70;30.30;;;;;;4901551;29;20212;-79
2021/03/21 05:23:00;;;;;;;3.22;2.80;;;3.70;30.40;;;;;;4903280;29;20700;-79
2021/03/21 05:25:32;;;;;;;3.60;2.45;;;3.70;30.60;;;;;;4913207;29;20235;-77
2021/03/21 05:28:06;;;;;;;2.30;2.05;;;3.70;31.00;;;;;;4917993;29;20192;-77
2021/03/21 05:30:35;;;;;;;3.95;2.58;;;3.70;31.10;;;;;;4917245;29;20232;-78
2021/03/21 05:33:04;;;;;;;3.08;2.33;;;3.70;31.60;;;;;;4907506;29;20227;-78
2021/03/21 05:35:32;;;;;;;2.80;2.53;;;3.70;32.10;;;;;;4898766;29;20239;-79
2021/03/21 05:38:11;;;;;;;2.70;2.35;;;3.70;32.60;;;;;;4897756;29;20215;-78
2021/03/21 05:41:10;;;;;;;2.50;2.30;;;3.70;33.00;;;;;;4898492;29;20208;-78
2021/03/21 05:44:02;;;;;;;4.95;3.10;;;3.70;32.90;;;;;;4897632;29;20639;-78
2021/03/21 05:46:56;;;;;;;3.97;2.40;;;3.80;33.00;;;;;;4897589;29;20318;-78
2021/03/21 05:50:00;;;;;;;3.80;2.90;;;3.80;33.10;;;;;;4897003;29;20235;-78
2021/03/21 05:52:52;;;;;;;5.50;2.90;;;3.80;32.90;;;;;;4894580;29;20257;-79
2021/03/21 05:55:35;;;;;;;5.80;2.90;;;3.80;32.70;;;;;;4897542;29;20611;-78
2021/03/21 05:58:41;;;;;;;5.93;2.80;;;3.70;32.50;;;;;;4896818;29;20216;-78
2021/03/21 06:01:31;;;;;;;4.72;2.65;;;3.70;32.60;;;;;;4890360;29;20248;-79
2021/03/21 06:04:33;;;;;;;3.70;2.50;;;3.80;32.30;;;;;;4902740;29;20244;-77
2021/03/21 06:07:42;;;;;;;3.92;3.15;;;3.80;32.50;;;;;;4882212;29;20292;-78
2021/03/21 06:10:46;;;;;;;3.88;2.83;;;3.80;32.10;;;;;;4896866;29;20212;-78
2021/03/21 06:13:27;;;;;;;5.05;3.30;;;3.80;32.10;;;;;;4896520;29;20207;-78
2021/03/21 06:16:08;;;;;;;3.50;3.17;;;3.80;32.40;;;;;;4897252;29;20236;-78
2021/03/21 06:19:02;;;;;;;5.50;3.10;;;3.80;31.90;;;;;;4896746;29;20719;-78
2021/03/21 06:21:57;;;;;;;4.82;3.28;;;3.90;31.90;;;;;;4894309;29;20307;-79
2021/03/21 06:24:52;;;;;;;4.18;3.10;;;3.90;31.70;;;;;;4897028;29;20243;-78
2021/03/21 06:27:32;;;;;;;3.70;3.40;;;3.90;31.80;;;;;;4895578;29;20263;-79
2021/03/21 06:30:26;;;;;;;5.15;3.25;;;3.90;32.10;;;;;;4896468;29;20231;-79
2021/03/21 06:33:18;;;;;;;3.30;3.00;;;4.00;31.80;;;;;;4878831;29;20226;-79
2021/03/21 06:36:15;;;;;;;7.40;3.00;;;4.00;31.80;;;;;;4898682;29;20387;-79
2021/03/21 06:39:31;;;;;;;3.95;3.20;;;4.10;31.50;;;;;;4899055;29;20653;-79
2021/03/21 06:42:31;;;;;;;6.07;3.55;;;4.10;31.20;;;;;;4896169;29;20246;-79
2021/03/21 06:45:33;;;;;;;5.45;3.40;;;4.10;31.10;;;;;;4896337;29;20235;-79
2021/03/21 06:48:32;;;;;;;6.63;2.92;;;4.10;30.90;;;;;;4879755;29;20302;-79
2021/03/21 06:51:31;;;;;;;3.38;3.05;;;4.10;31.00;;;;;;4897221;29;20224;-77
2021/03/21 06:54:17;;;;;;;3.90;2.92;;;4.10;31.20;;;;;;4894479;29;20625;-78
2021/03/21 06:57:22;;;;;;;4.55;3.22;;;4.10;30.40;;;;;;4911938;29;20239;-78
2021/03/21 07:00:27;;;;;;;4.30;3.50;;;4.10;30.70;;;;;;4907902;29;20238;-79
2021/03/21 07:03:43;;;;;;;3.10;2.75;;;4.10;31.10;;;;;;4894827;29;20227;-77
2021/03/21 07:06:48;;;;;;;4.70;3.30;;;4.10;30.90;;;;;;4896112;29;20275;-78
2021/03/21 07:09:50;;;;;;;4.93;3.08;;;4.10;31.10;;;;;;4896713;29;20721;-78
2021/03/21 07:12:46;;;;;;;3.80;2.90;;;4.10;30.90;;;;;;4849303;29;20746;-79
2021/03/21 07:15:34;;;;;;;3.40;3.10;;;4.10;30.90;;;;;;4900246;29;20314;-79
2021/03/21 07:18:37;;;;;;;4.68;3.40;;;4.10;31.10;;;;;;4900417;29;20287;-78
2021/03/21 07:21:47;;;;;;;6.90;3.58;;;4.20;31.00;;;;;;4900638;29;20295;-79
2021/03/21 07:24:45;;;;;;;5.65;3.83;;;4.20;30.90;;;;;;4902014;29;20534;-79
2021/03/21 07:27:28;;;;;;;5.15;3.58;;;4.30;31.10;;;;;;4901394;29;20211;-79
2021/03/21 07:29:58;;;;;;;4.47;3.17;;;4.30;30.90;;;;;;4906396;29;20331;-77
2021/03/21 07:33:03;;;;;;;5.03;3.78;;;4.30;30.50;;;;;;4900377;29;20897;-79
2021/03/21 07:35:49;;;;;;;3.88;3.22;;;4.20;30.50;;;;;;4900156;29;20601;-79
2021/03/21 07:38:24;;;;;;;5.30;3.70;;;4.30;30.50;;;;;;4900022;29;20232;-79
2021/03/21 07:40:52;;;;;;;6.25;3.75;;;4.30;30.80;;;;;;4900136;29;20219;-79
2021/03/21 07:43:37;;;;;;;6.15;3.90;;;4.40;30.50;;;;;;4902256;29;20590;-78
2021/03/21 07:46:28;;;;;;;5.03;3.75;;;4.40;30.60;;;;;;4900239;29;20274;-78
2021/03/21 07:49:18;;;;;;;4.13;3.63;;;4.40;30.40;;;;;;4898498;29;20703;-78
2021/03/21 07:52:33;;;;;;;4.95;3.58;;;4.60;30.10;;;;;;4899531;29;20220;-78
2021/03/21 07:55:06;;;;;;;4.70;4.00;;;4.80;29.80;;;;;;4890632;29;20239;-78
2021/03/21 07:57:42;;;;;;;4.97;3.70;;;5.00;29.30;;;;;;4906046;29;20235;-79
2021/03/21 08:00:11;;;;;;;6.03;4.43;;;5.10;28.80;;;;;;4914203;29;20215;-78
2021/03/21 08:02:38;;;;;;;6.90;4.20;;;5.30;28.30;;;;;;4908924;29;20339;-78
2021/03/21 08:05:12;;;;;;;4.10;3.67;;;5.40;27.70;;;;;;4900347;29;20251;-79
2021/03/21 08:07:41;;;;;;;4.47;3.60;;;5.40;27.30;;;;;;4901392;29;20294;-79
2021/03/21 08:10:22;;;;;;;5.75;3.97;;;5.40;27.30;;;;;;4898798;29;20239;-79
2021/03/21 08:12:54;;;;;;;4.20;3.67;;;5.60;27.50;;;;;;4897873;29;20224;-78
2021/03/21 08:15:23;;;;;;;7.13;3.63;;;5.80;27.60;;;;;;4898181;29;20323;-79
2021/03/21 08:17:54;;;;;;;5.78;3.88;;;6.00;27.80;;;;;;4898846;29;20295;-79
2021/03/21 08:20:23;;;;;;;5.68;3.65;;;6.10;27.80;;;;;;4898792;29;20248;-78
2021/03/21 08:22:50;;;;;;;6.03;4.35;;;6.10;27.80;;;;;;4898450;29;20239;-79
2021/03/21 08:25:24;;;;;;;5.65;4.80;;;6.10;26.80;;;;;;4900388;29;20263;-79
2021/03/21 08:27:54;;;;;;;7.30;3.63;;;6.20;27.50;;;;;;4904179;29;20606;-77
2021/03/21 08:30:22;;;;;;;4.57;3.97;;;6.00;26.30;;;;;;4903144;29;20224;-78
2021/03/21 08:32:56;;;;;;;4.00;3.60;;;5.90;26.80;;;;;;4909004;29;20215;-79
2021/03/21 08:35:25;;;;;;;4.22;3.72;;;5.80;27.60;;;;;;4916378;29;20231;-80
2021/03/21 08:37:54;;;;;;;6.50;4.00;;;5.80;26.60;;;;;;4910871;29;20215;-79
2021/03/21 08:40:26;;;;;;;4.25;3.80;;;5.70;27.10;;;;;;4904175;29;20204;-82
2021/03/21 08:42:56;;;;;;;6.72;3.60;;;5.80;26.90;;;;;;4907962;29;20217;-82
2021/03/21 08:45:32;;;;;;;7.22;4.20;;;5.70;27.30;;;;;;4907939;29;20279;-79
2021/03/21 08:48:21;;;;;;;8.50;3.95;;;5.70;27.60;;;;;;4907948;29;20475;-80
2021/03/21 08:50:49;;;;;;;4.55;3.70;;;5.70;27.60;;;;;;4900498;29;20243;-80
2021/03/21 08:53:34;;;;;;;6.53;3.95;;;5.70;27.60;;;;;;4906828;29;20309;-79
2021/03/21 08:56:20;;;;;;;8.30;4.10;;;5.80;27.60;;;;;;4902389;29;20241;-80
2021/03/21 08:58:49;;;;;;;7.00;4.60;;;5.90;27.70;;;;;;4901303;29;20226;-80
2021/03/21 09:01:19;;;;;;;5.30;3.90;;;5.90;27.70;;;;;;4902850;29;20243;-79
2021/03/21 09:03:46;;;;;;;6.72;4.30;;;6.00;27.80;;;;;;4906593;29;20292;-80
2021/03/21 09:06:30;;;;;;;4.05;3.60;;;6.20;27.90;;;;;;4906390;29;20639;-80
2021/03/21 09:09:16;;;;;;;6.00;3.92;;;6.40;27.30;;;;;;4891299;29;20228;-80
2021/03/21 09:11:45;;;;;;;9.30;4.93;;;6.40;27.70;;;;;;4886185;29;20224;-79
2021/03/21 09:14:15;;;;;;;5.00;4.45;;;6.40;27.30;;;;;;4885666;29;20212;-79
2021/03/21 09:17:00;;;;;;;5.80;4.45;;;6.30;27.40;;;;;;4887491;29;20760;-80
2021/03/21 09:19:30;;;;;;;5.20;3.85;;;6.50;27.30;;;;;;4887557;29;20219;-79
2021/03/21 09:21:57;;;;;;;6.88;4.45;;;6.40;28.10;;;;;;4889512;29;20216;-79
2021/03/21 09:24:28;;;;;;;4.95;4.45;;;6.30;28.00;;;;;;4889897;29;20212;-80
2021/03/21 09:27:15;;;;;;;4.97;4.22;;;6.30;28.00;;;;;;4887943;29;20265;-81
2021/03/21 09:29:44;;;;;;;6.93;4.30;;;6.10;27.90;;;;;;4889946;29;20203;-79
2021/03/21 09:32:24;;;;;;;6.22;4.78;;;6.10;27.80;;;;;;4902519;29;20252;-79
2021/03/21 09:35:06;;;;;;;4.80;4.18;;;6.10;27.90;;;;;;4898966;29;20208;-84
2021/03/21 09:37:37;;;;;;;5.60;3.90;;;6.20;27.90;;;;;;4888156;29;20303;-80
2021/03/21 09:40:15;;;;;;;6.78;5.18;;;6.30;28.00;;;;;;4894694;29;20209;-81
2021/03/21 09:42:43;;;;;;;14.52;5.03;;;6.40;28.00;;;;;;4893012;29;20220;-80
2021/03/21 09:45:14;;;;;;;6.80;5.35;;;6.50;28.10;;;;;;4894166;29;20244;-81
2021/03/21 09:47:49;;;;;;;8.07;4.72;;;6.40;28.70;;;;;;4915001;29;20199;-82
2021/03/21 09:50:31;;;;;;;7.05;5.28;;;6.30;29.30;;;;;;4920383;29;20255;-83
2021/03/21 09:53:15;;;;;;;7.05;5.65;;;6.30;29.70;;;;;;4918787;29;20259;-79
2021/03/21 09:55:48;;;;;;;7.07;5.28;;;6.20;30.90;;;;;;4918157;29;20242;-82
2021/03/21 09:58:30;;;;;;;8.07;5.60;;;6.10;32.20;;;;;;4912834;29;20224;-82
2021/03/21 10:01:03;;;;;;;8.07;6.20;;;6.10;33.40;;;;;;4897925;29;20184;-81
2021/03/21 10:03:32;;;;;;;7.38;6.03;;;6.10;34.20;;;;;;4889079;29;20200;-80
2021/03/21 13:44:02;;;;;;;11.15;8.75;;;7.90;42.60;;;;;;5527870;23;21015;-81
2021/03/21 13:46:28;;;;;;;14.02;10.32;;;7.70;43.40;;;;;;4916689;29;20204;-80
2021/03/21 13:48:55;;;;;;;12.02;9.25;;;7.50;44.60;;;;;;4915846;29;20638;-80
2021/03/21 13:51:22;;;;;;;13.73;10.40;;;7.40;45.20;;;;;;4915453;29;20227;-81
2021/03/21 13:53:48;;;;;;;12.68;9.65;;;7.40;45.60;;;;;;4911219;29;20514;-81
2021/03/21 13:56:15;;;;;;;12.93;9.82;;;7.50;45.40;;;;;;4909863;29;20208;-81
2021/03/21 19:06:53;;;;;;;14.02;10.30;;;6.20;47.70;;;;;;5524843;23;20230;-83
2021/03/21 19:09:24;;;;;;;14.15;10.35;;;6.10;47.80;;;;;;4925938;29;20228;-82
2021/03/21 19:11:59;;;;;;;11.40;9.27;;;6.10;47.80;;;;;;4909704;29;20264;-82
2021/03/21 19:14:44;;;;;;;14.70;11.18;;;6.10;48.10;;;;;;4926159;29;20203;-80
2021/03/21 19:37:45;;;;;;;13.82;10.10;;;6.00;48.00;;;;;;4831458;29;20194;-81
2021/03/21 19:40:30;;;;;;;14.20;10.75;;;5.90;48.20;;;;;;4831572;29;20269;-81
2021/03/21 19:43:48;;;;;;;12.80;10.10;;;5.90;48.60;;;;;;4897360;29;20196;-81
2021/03/21 19:54:50;;;;;;;15.77;11.25;;;5.90;48.30;;;;;;5187856;23;20998;-82
2021/03/21 19:58:19;;;;;;;13.55;9.50;;;5.90;48.30;;;;;;4847164;29;20214;-81
2021/03/21 20:01:53;;;;;;;15.00;10.43;;;5.90;48.50;;;;;;4814806;29;20299;-82
2021/03/21 21:24:29;;;;;;;14.45;9.77;;;5.60;51.10;;;;;;4956801;29;20210;-84
2021/03/21 21:26:55;;;;;;;13.77;10.25;;;5.70;50.80;;;;;;4959072;29;20210;-83
2021/03/21 21:29:22;;;;;;;14.45;9.85;;;5.70;50.60;;;;;;4960004;29;20222;-83
2021/03/21 21:31:49;;;;;;;14.70;10.30;;;5.70;50.50;;;;;;4944795;29;20239;-82
2021/03/21 21:34:16;;;;;;;13.85;10.48;;;5.60;50.80;;;;;;4941369;29;20191;-83
2021/03/21 21:36:46;;;;;;;16.05;10.07;;;5.60;51.10;;;;;;4941258;29;20198;-82
2021/03/21 21:39:14;;;;;;;13.90;10.45;;;5.60;51.10;;;;;;4939812;29;20207;-80
2021/03/21 21:41:42;;;;;;;16.15;10.52;;;5.60;51.10;;;;;;4936996;29;20227;-84
2021/03/21 21:44:15;;;;;;;14.70;10.45;;;5.60;51.10;;;;;;4939147;29;20214;-81
2021/03/21 21:46:47;;;;;;;17.40;10.52;;;5.60;51.10;;;;;;4941395;29;20220;-80
2021/03/21 21:49:48;;;;;;;17.05;10.20;;;5.60;51.10;;;;;;4938333;29;20215;-79
2021/03/21 22:05:44;;;;;;;19.73;9.55;;;5.70;48.40;;;;;;4955272;29;20242;-77
2021/03/21 22:08:10;;;;;;;19.58;9.40;;;5.70;48.40;;;;;;4955827;29;20229;-80
2021/03/21 22:11:02;;;;;;;19.02;8.95;;;5.70;48.40;;;;;;4952006;29;20235;-80
2021/03/21 22:13:30;;;;;;;15.65;8.00;;;5.70;48.00;;;;;;4939335;29;20211;-78
2021/03/21 23:07:44;;;;;;;15.75;5.22;;;5.80;46.60;;;;;;5268245;23;20219;-76
2021/03/21 23:10:12;;;;;;;14.20;5.32;;;5.80;46.60;;;;;;4915869;29;20216;-75
2021/03/21 23:12:39;;;;;;;17.52;6.38;;;5.90;46.70;;;;;;4913053;29;20264;-77
2021/03/21 23:15:10;;;;;;;18.08;5.40;;;5.80;46.60;;;;;;4910637;29;20228;-78
2021/03/21 23:17:37;;;;;;;18.10;6.25;;;5.80;46.60;;;;;;4912380;29;20253;-77
2021/03/21 23:20:06;;;;;;;18.13;5.90;;;5.80;46.50;;;;;;4914438;29;20219;-76
2021/03/21 23:22:32;;;;;;;22.85;5.57;;;5.80;46.50;;;;;;4917609;29;20211;-79
2021/03/21 23:25:00;;;;;;;18.48;5.60;;;5.80;46.60;;;;;;4910616;29;20295;-78
2021/03/21 23:27:27;;;;;;;15.55;5.07;;;5.80;46.30;;;;;;4907500;29;20236;-78
2021/03/21 23:29:53;;;;;;;16.90;5.80;;;5.80;45.90;;;;;;4909056;29;20307;-75
2021/03/21 23:32:20;;;;;;;19.50;5.28;;;5.80;45.80;;;;;;4919517;29;20227;-77
2021/03/21 23:34:47;;;;;;;12.43;4.20;;;5.80;45.80;;;;;;4916101;29;20204;-77
2021/03/21 23:37:13;;;;;;;15.85;4.68;;;5.80;46.00;;;;;;4919496;29;20212;-76
2021/03/21 23:39:40;;;;;;;22.92;6.07;;;5.80;45.60;;;;;;4921438;29;20224;-79
2021/03/21 23:42:09;;;;;;;13.43;4.65;;;5.80;45.20;;;;;;4909023;29;20239;-78
2021/03/21 23:44:35;;;;;;;19.70;5.63;;;5.80;45.30;;;;;;4904748;29;20219;-78
2021/03/21 23:47:02;;;;;;;14.32;5.97;;;5.80;45.40;;;;;;4905268;29;20310;-77
2021/03/21 23:49:28;;;;;;;17.65;5.57;;;5.80;46.30;;;;;;4914613;29;20279;-78
2021/03/21 23:51:55;;;;;;;22.75;5.63;;;5.80;45.80;;;;;;4915344;29;20220;-78
2021/03/21 23:54:23;;;;;;;19.95;5.20;;;5.80;46.50;;;;;;4920182;29;20210;-76
2021/03/21 23:56:50;;;;;;;20.05;4.85;;;5.80;46.20;;;;;;4922072;29;20235;-76
2021/03/21 23:59:17;;;;;;;16.08;5.55;;;5.80;46.50;;;;;;4921895;29;20212;-75
